createdAt,value
2018-05-06T00:00:26.443Z,101057.61
2018-05-06T00:02:54.764Z,101071.86
2018-05-06T00:05:23.097Z,101068.58
2018-05-06T00:07:51.508Z,101076.03
2018-05-06T00:10:19.841Z,101078.24
2018-05-06T00:12:48.215Z,101069.42
2018-05-06T00:15:16.612Z,101073.56
2018-05-06T00:17:44.924Z,101075.37
2018-05-06T00:20:13.315Z,101075.42
2018-05-06T00:22:41.613Z,101078.30
2018-05-06T00:25:09.925Z,101084.30
2018-05-06T00:27:38.410Z,101081.55
2018-05-06T00:30:06.834Z,101086.20
2018-05-06T00:32:35.130Z,101086.13
2018-05-06T00:35:03.543Z,101084.27
2018-05-06T00:37:31.964Z,101086.88
2018-05-06T00:40:00.290Z,101083.14
2018-05-06T00:42:28.605Z,101080.97
2018-05-06T00:44:56.983Z,101078.12
2018-05-06T00:47:25.374Z,101081.82
2018-05-06T00:49:53.767Z,101079.28
2018-05-06T00:52:22.181Z,101083.69
2018-05-06T00:54:50.503Z,101077.28
2018-05-06T00:57:18.860Z,101083.75
2018-05-06T00:59:47.225Z,101087.62
2018-05-06T01:02:15.619Z,101086.83
2018-05-06T01:04:43.941Z,101085.69
2018-05-06T01:07:12.248Z,101090.50
2018-05-06T01:09:40.601Z,101089.05
2018-05-06T01:12:08.958Z,101093.72
2018-05-06T01:14:37.262Z,101093.41
2018-05-06T01:17:05.604Z,101096.93
2018-05-06T01:19:33.967Z,101094.66
2018-05-06T01:22:02.369Z,101096.04
2018-05-06T01:24:30.702Z,101099.30
2018-05-06T01:26:59.141Z,101102.77
2018-05-06T01:29:27.461Z,101099.53
2018-05-06T01:31:55.777Z,101096.05
2018-05-06T01:34:24.112Z,101105.66
2018-05-06T01:36:52.501Z,101105.67
2018-05-06T01:39:21.387Z,101103.17
2018-05-06T01:41:49.705Z,101101.97
2018-05-06T01:44:18.148Z,101109.53
2018-05-06T01:46:46.491Z,101108.07
2018-05-06T01:49:14.809Z,101101.66
2018-05-06T01:51:43.142Z,101109.98
2018-05-06T01:54:11.452Z,101108.37
2018-05-06T01:56:39.853Z,101107.17
2018-05-06T01:59:08.181Z,101110.91
2018-05-06T02:01:36.501Z,101106.91
2018-05-06T02:04:04.928Z,101105.92
2018-05-06T02:06:33.763Z,101099.73
2018-05-06T02:09:02.073Z,101101.37
2018-05-06T02:11:30.401Z,101103.11
2018-05-06T02:13:58.739Z,101099.41
2018-05-06T02:16:27.047Z,101097.75
2018-05-06T02:18:55.371Z,101092.19
2018-05-06T02:21:23.766Z,101094.68
2018-05-06T02:23:52.169Z,101100.41
2018-05-06T02:26:20.535Z,101098.86
2018-05-06T02:28:48.834Z,101106.52
2018-05-06T02:31:17.153Z,101107.86
2018-05-06T02:33:45.470Z,101098.47
2018-05-06T02:36:13.790Z,101094.95
2018-05-06T02:38:42.276Z,101099.30
2018-05-06T02:41:10.618Z,101098.23
2018-05-06T02:43:38.935Z,101109.44
2018-05-06T02:46:07.361Z,101112.33
2018-05-06T02:48:35.666Z,101108.33
2018-05-06T02:51:04.006Z,101108.98
2018-05-06T02:53:32.324Z,101114.91
2018-05-06T02:56:00.653Z,101113.52
2018-05-06T02:58:29.044Z,101109.61
2018-05-06T03:00:57.437Z,101115.48
2018-05-06T03:03:25.889Z,101109.97
2018-05-06T03:05:54.242Z,101111.77
2018-05-06T03:08:22.651Z,101112.13
2018-05-06T03:10:50.982Z,101113.90
2018-05-06T03:13:19.300Z,101117.63
2018-05-06T03:15:47.703Z,101118.64
2018-05-06T03:18:16.017Z,101115.69
2018-05-06T03:20:44.399Z,101118.19
2018-05-06T03:23:12.784Z,101113.89
2018-05-06T03:25:41.155Z,101116.92
2018-05-06T03:28:09.561Z,101116.39
2018-05-06T03:30:37.959Z,101116.80
2018-05-06T03:33:06.325Z,101118.20
2018-05-06T03:35:34.639Z,101125.48
2018-05-06T03:38:02.964Z,101133.35
2018-05-06T03:40:31.393Z,101136.27
2018-05-06T03:43:00.570Z,101132.52
2018-05-06T03:45:28.904Z,101132.05
2018-05-06T03:47:57.259Z,101132.52
2018-05-06T03:50:25.605Z,101124.05
2018-05-06T03:52:53.955Z,101122.53
2018-05-06T03:55:22.296Z,101131.23
2018-05-06T03:58:02.879Z,101136.20
2018-05-06T04:00:45.077Z,101133.30
2018-05-06T04:03:13.462Z,101134.47
2018-05-06T04:05:41.823Z,101132.23
2018-05-06T04:08:10.147Z,101137.09
2018-05-06T04:10:38.473Z,101147.59
2018-05-06T04:13:06.874Z,101146.25
2018-05-06T04:15:35.280Z,101146.89
2018-05-06T04:18:03.593Z,101146.06
2018-05-06T04:20:31.920Z,101149.84
2018-05-06T04:23:00.263Z,101144.00
2018-05-06T04:25:29.540Z,101145.22
2018-05-06T04:27:58.311Z,101150.08
2018-05-06T04:30:27.129Z,101159.88
2018-05-06T04:32:55.530Z,101156.16
2018-05-06T04:35:24.210Z,101158.71
2018-05-06T04:37:52.660Z,101154.94
2018-05-06T04:40:21.216Z,101152.37
2018-05-06T04:42:49.603Z,101150.64
2018-05-06T04:45:18.029Z,101151.63
2018-05-06T04:47:46.403Z,101145.58
2018-05-06T04:50:14.742Z,101148.55
2018-05-06T04:52:44.321Z,101149.33
2018-05-06T04:55:12.896Z,101148.58
2018-05-06T04:57:47.373Z,101145.66
2018-05-06T05:00:15.832Z,101146.01
2018-05-06T05:02:44.343Z,101140.27
2018-05-06T05:05:12.759Z,101144.45
2018-05-06T05:07:41.947Z,101143.44
2018-05-06T05:10:23.380Z,101142.73
2018-05-06T05:12:51.939Z,101139.67
2018-05-06T05:15:20.398Z,101137.58
2018-05-06T05:17:48.711Z,101136.98
2018-05-06T05:20:17.080Z,101132.97
2018-05-06T05:22:45.953Z,101132.47
2018-05-06T05:25:15.356Z,101134.78
2018-05-06T05:27:43.691Z,101134.19
2018-05-06T05:30:12.096Z,101129.02
2018-05-06T05:32:40.565Z,101137.50
2018-05-06T05:35:09.424Z,101145.67
2018-05-06T05:37:37.829Z,101141.71
2018-05-06T05:40:06.263Z,101139.14
2018-05-06T05:42:35.484Z,101138.33
2018-05-06T05:45:03.829Z,101135.79
2018-05-06T05:47:33.830Z,101131.31
2018-05-06T05:50:02.088Z,101119.93
2018-05-06T05:52:31.056Z,101119.96
2018-05-06T05:54:59.445Z,101112.64
2018-05-06T05:57:28.538Z,101112.27
2018-05-06T05:59:56.919Z,101113.70
2018-05-06T06:02:25.288Z,101110.66
2018-05-06T06:04:53.774Z,101110.16
2018-05-06T06:07:22.074Z,101114.73
2018-05-06T06:09:52.255Z,101113.20
2018-05-06T06:12:20.571Z,101106.19
2018-05-06T06:14:49.265Z,101112.27
2018-05-06T06:17:17.657Z,101101.87
2018-05-06T06:19:46.024Z,101095.97
2018-05-06T06:22:14.421Z,101101.83
2018-05-06T06:24:42.813Z,101101.50
2018-05-06T06:27:11.218Z,101099.69
2018-05-06T06:29:39.750Z,101100.55
2018-05-06T06:32:08.454Z,101104.05
2018-05-06T06:34:36.800Z,101095.38
2018-05-06T06:37:05.366Z,101090.66
2018-05-06T06:39:38.097Z,101089.84
2018-05-06T06:42:06.610Z,101083.31
2018-05-06T06:44:34.946Z,101084.63
2018-05-06T06:47:03.319Z,101092.30
2018-05-06T06:49:31.782Z,101091.64
2018-05-06T06:52:00.596Z,101089.57
2018-05-06T06:54:29.073Z,101082.99
2018-05-06T06:56:57.433Z,101080.08
2018-05-06T06:59:25.802Z,101079.94
2018-05-06T07:01:54.265Z,101090.80
2018-05-06T07:04:22.626Z,101084.94
2018-05-06T07:06:51.216Z,101091.61
2018-05-06T07:09:19.797Z,101079.23
2018-05-06T07:11:48.308Z,101082.86
2018-05-06T07:14:16.746Z,101081.37
2018-05-06T07:16:45.208Z,101079.06
2018-05-06T07:19:13.661Z,101076.88
2018-05-06T07:21:42.884Z,101081.51
2018-05-06T07:24:11.524Z,101073.19
2018-05-06T07:26:40.269Z,101078.69
2018-05-06T07:29:08.626Z,101080.48
2018-05-06T07:31:37.471Z,101068.38
2018-05-06T07:34:05.894Z,101074.20
2018-05-06T07:36:36.679Z,101083.37
2018-05-06T07:39:06.592Z,101083.20
2018-05-06T07:41:34.986Z,101077.53
2018-05-06T07:44:03.350Z,101070.11
2018-05-06T07:46:31.709Z,101071.52
2018-05-06T07:49:00.162Z,101069.07
2018-05-06T07:51:28.458Z,101061.95
2018-05-06T07:53:57.209Z,101071.87
2018-05-06T07:56:25.677Z,101075.39
2018-05-06T07:58:54.083Z,101082.02
2018-05-06T08:01:22.702Z,101082.89
2018-05-06T08:03:51.756Z,101083.12
2018-05-06T08:06:20.152Z,101087.06
2018-05-06T08:08:52.137Z,101094.98
2018-05-06T08:11:20.632Z,101094.33
2018-05-06T08:13:49.356Z,101096.22
2018-05-06T08:16:17.787Z,101092.66
2018-05-06T08:18:46.099Z,101102.59
2018-05-06T08:21:15.392Z,101105.81
2018-05-06T08:23:43.756Z,101100.08
2018-05-06T08:26:12.099Z,101099.84
2018-05-06T08:28:40.497Z,101094.55
2018-05-06T08:31:08.827Z,101102.78
2018-05-06T08:33:37.198Z,101103.10
2018-05-06T08:36:05.518Z,101098.81
2018-05-06T08:38:33.890Z,101101.25
2018-05-06T08:41:02.554Z,101101.86
2018-05-06T08:43:31.968Z,101103.96
2018-05-06T08:46:00.388Z,101103.72
2018-05-06T08:48:28.769Z,101101.05
2018-05-06T08:50:57.098Z,101097.87
2018-05-06T08:53:25.455Z,101095.94
2018-05-06T08:55:54.038Z,101097.99
2018-05-06T08:58:22.408Z,101088.95
2018-05-06T09:00:50.789Z,101089.34
2018-05-06T09:03:19.137Z,101095.08
2018-05-06T09:05:47.636Z,101100.45
2018-05-06T09:08:15.982Z,101092.97
2018-05-06T09:10:44.325Z,101104.30
2018-05-06T09:13:12.657Z,101094.03
2018-05-06T09:15:41.005Z,101094.36
2018-05-06T09:18:09.322Z,101099.13
2018-05-06T09:20:37.630Z,101100.95
2018-05-06T09:23:05.973Z,101092.75
2018-05-06T09:25:34.332Z,101091.64
2018-05-06T09:28:02.593Z,101087.63
2018-05-06T09:30:30.951Z,101089.25
2018-05-06T09:32:59.274Z,101093.39
2018-05-06T09:35:27.616Z,101089.65
2018-05-06T09:37:56.113Z,101089.94
2018-05-06T09:40:24.638Z,101088.56
2018-05-06T09:42:55.414Z,101087.22
2018-05-06T09:45:24.216Z,101080.60
2018-05-06T09:47:52.583Z,101079.61
2018-05-06T09:50:21.789Z,101084.23
2018-05-06T09:52:50.095Z,101083.41
2018-05-06T09:55:18.446Z,101087.84
2018-05-06T09:57:46.762Z,101081.97
2018-05-06T10:00:15.093Z,101073.34
2018-05-06T10:02:43.449Z,101075.34
2018-05-06T10:05:11.770Z,101067.67
2018-05-06T10:07:40.085Z,101065.91
2018-05-06T10:10:08.653Z,101060.53
2018-05-06T10:12:36.964Z,101063.27
2018-05-06T10:15:05.286Z,101054.47
2018-05-06T10:17:33.784Z,101061.05
2018-05-06T10:20:02.116Z,101056.99
2018-05-06T10:22:30.426Z,101061.23
2018-05-06T10:24:58.750Z,101058.84
2018-05-06T10:27:27.103Z,101057.45
2018-05-06T10:29:58.846Z,101055.55
2018-05-06T10:32:27.707Z,101055.56
2018-05-06T10:34:56.027Z,101056.20
2018-05-06T10:37:24.628Z,101054.28
2018-05-06T10:39:52.971Z,101041.38
2018-05-06T10:42:21.381Z,101043.33
2018-05-06T10:44:49.676Z,101038.96
2018-05-06T10:47:18.073Z,101049.10
2018-05-06T10:49:46.415Z,101037.19
2018-05-06T10:52:14.745Z,101038.58
2018-05-06T10:54:43.135Z,101033.11
2018-05-06T10:57:12.656Z,101037.39
2018-05-06T10:59:40.982Z,101040.40
2018-05-06T11:02:09.335Z,101034.65
2018-05-06T11:04:38.353Z,101028.83
2018-05-06T11:07:06.786Z,101029.66
2018-05-06T11:09:35.090Z,101026.95
2018-05-06T11:12:03.515Z,101033.71
2018-05-06T11:14:31.815Z,101028.75
2018-05-06T11:17:00.190Z,101023.60
2018-05-06T11:19:28.513Z,101023.05
2018-05-06T11:21:56.860Z,101022.73
2018-05-06T11:24:25.183Z,101028.49
2018-05-06T11:26:53.625Z,101019.67
2018-05-06T11:29:22.044Z,101019.80
2018-05-06T11:31:50.420Z,101017.95
2018-05-06T11:34:18.944Z,101015.81
2018-05-06T11:36:47.251Z,101013.30
2018-05-06T11:39:15.589Z,101013.31
2018-05-06T11:41:44.248Z,101004.84
2018-05-06T11:44:12.590Z,100995.56
2018-05-06T11:46:40.945Z,101000.52
2018-05-06T11:49:09.270Z,101010.66
2018-05-06T11:51:37.707Z,100995.77
2018-05-06T11:54:06.032Z,101003.31
2018-05-06T11:56:34.386Z,101005.96
2018-05-06T11:59:02.779Z,100994.73
2018-05-06T12:01:31.115Z,100995.75
2018-05-06T12:03:59.556Z,100996.56
2018-05-06T12:06:27.907Z,100989.30
2018-05-06T12:08:56.416Z,100984.95
2018-05-06T12:11:24.727Z,100980.80
2018-05-06T12:13:53.253Z,100980.41
2018-05-06T12:16:21.593Z,100976.97
2018-05-06T12:18:49.907Z,100980.22
2018-05-06T12:21:18.540Z,100982.17
2018-05-06T12:23:46.910Z,100972.53
2018-05-06T12:26:15.289Z,100977.53
2018-05-06T12:28:43.631Z,100962.17
2018-05-06T12:31:11.950Z,100965.83
2018-05-06T12:33:40.330Z,100963.16
2018-05-06T12:36:08.685Z,100959.23
2018-05-06T12:38:37.087Z,100958.56
2018-05-06T12:41:05.491Z,100941.01
2018-05-06T12:43:33.877Z,100943.50
2018-05-06T12:46:02.202Z,100941.52
2018-05-06T12:48:30.557Z,100943.43
2018-05-06T12:50:58.864Z,100934.70
2018-05-06T12:53:27.206Z,100933.88
2018-05-06T12:55:55.541Z,100932.66
2018-05-06T12:58:23.867Z,100928.51
2018-05-06T13:00:52.272Z,100932.48
2018-05-06T13:03:20.623Z,100926.83
2018-05-06T13:05:48.984Z,100921.84
2018-05-06T13:08:17.322Z,100923.27
2018-05-06T13:10:45.641Z,100915.41
2018-05-06T13:13:14.008Z,100913.73
2018-05-06T13:15:42.326Z,100916.34
2018-05-06T13:18:10.649Z,100913.06
2018-05-06T13:20:38.966Z,100907.04
2018-05-06T13:23:07.295Z,100908.41
2018-05-06T13:25:35.639Z,100909.94
2018-05-06T13:28:03.967Z,100915.13
2018-05-06T13:30:32.330Z,100904.97
2018-05-06T13:33:01.410Z,100908.52
2018-05-06T13:35:29.788Z,100904.78
2018-05-06T13:37:58.112Z,100901.66
2018-05-06T13:40:26.423Z,100901.18
2018-05-06T13:42:54.852Z,100899.84
2018-05-06T13:45:23.166Z,100897.72
2018-05-06T13:47:51.490Z,100889.30
2018-05-06T13:50:19.817Z,100895.30
2018-05-06T13:52:48.145Z,100889.42
2018-05-06T13:55:16.502Z,100889.14
2018-05-06T13:57:44.849Z,100882.10
2018-05-06T14:00:13.178Z,100886.27
2018-05-06T14:02:41.606Z,100890.11
2018-05-06T14:05:09.931Z,100881.84
2018-05-06T14:07:38.253Z,100876.25
2018-05-06T14:10:06.586Z,100882.88
2018-05-06T14:12:34.935Z,100887.90
2018-05-06T14:15:03.290Z,100895.92
2018-05-06T14:17:31.595Z,100888.34
2018-05-06T14:19:59.935Z,100878.06
2018-05-06T14:22:28.314Z,100884.94
2018-05-06T14:24:56.652Z,100879.11
2018-05-06T14:27:24.971Z,100880.70
2018-05-06T14:29:53.409Z,100876.02
2018-05-06T14:32:21.838Z,100873.18
2018-05-06T14:34:50.160Z,100880.05
2018-05-06T14:37:18.508Z,100864.77
2018-05-06T14:39:46.828Z,100871.23
2018-05-06T14:42:15.175Z,100877.87
2018-05-06T14:44:43.524Z,100876.11
2018-05-06T14:47:23.780Z,100869.99
2018-05-06T14:49:52.110Z,100872.88
2018-05-06T14:52:20.535Z,100859.17
2018-05-06T14:54:48.887Z,100866.20
2018-05-06T14:57:17.204Z,100869.31
2018-05-06T14:59:45.525Z,100864.83
2018-05-06T15:02:13.831Z,100863.38
2018-05-06T15:04:42.143Z,100867.58
2018-05-06T15:07:10.460Z,100856.25
2018-05-06T15:09:38.853Z,100860.42
2018-05-06T15:12:07.180Z,100864.84
2018-05-06T15:14:35.489Z,100862.69
2018-05-06T15:17:03.814Z,100859.36
2018-05-06T15:19:32.133Z,100857.67
2018-05-06T15:22:00.544Z,100858.72
2018-05-06T15:24:28.862Z,100853.97
2018-05-06T15:26:57.201Z,100853.22
2018-05-06T15:29:25.581Z,100858.58
2018-05-06T15:31:53.900Z,100857.34
2018-05-06T15:34:22.272Z,100849.33
2018-05-06T15:36:50.688Z,100852.21
2018-05-06T15:39:19.008Z,100846.27
2018-05-06T15:41:47.403Z,100846.59
2018-05-06T15:44:15.709Z,100849.53
2018-05-06T15:46:44.488Z,100846.32
2018-05-06T15:49:12.816Z,100845.94
2018-05-06T15:51:41.271Z,100842.08
2018-05-06T15:54:09.599Z,100842.11
2018-05-06T15:56:37.966Z,100846.22
2018-05-06T15:59:06.411Z,100843.54
2018-05-06T16:01:34.754Z,100840.54
2018-05-06T16:04:14.937Z,100840.35
2018-05-06T16:06:43.249Z,100843.53
2018-05-06T16:09:11.599Z,100839.75
2018-05-06T16:11:39.915Z,100833.61
2018-05-06T16:14:08.281Z,100834.36
2018-05-06T16:16:36.606Z,100829.64
2018-05-06T16:19:04.989Z,100831.53
2018-05-06T16:21:33.305Z,100829.51
2018-05-06T16:24:01.685Z,100818.38
2018-05-06T16:26:30.035Z,100822.48
2018-05-06T16:28:58.378Z,100823.00
2018-05-06T16:31:26.680Z,100818.19
2018-05-06T16:33:55.062Z,100819.48
2018-05-06T16:36:23.375Z,100818.19
2018-05-06T16:38:51.724Z,100817.59
2018-05-06T16:41:20.037Z,100820.92
2018-05-06T16:43:48.384Z,100818.31
2018-05-06T16:46:16.805Z,100816.05
2018-05-06T16:48:45.121Z,100818.15
2018-05-06T16:51:13.644Z,100820.40
2018-05-06T16:53:41.999Z,100819.36
2018-05-06T16:56:10.424Z,100817.62
2018-05-06T16:58:38.822Z,100825.03
2018-05-06T17:01:07.164Z,100823.66
2018-05-06T17:03:35.484Z,100826.72
2018-05-06T17:06:03.813Z,100821.67
2018-05-06T17:08:32.211Z,100823.16
2018-05-06T17:11:00.563Z,100821.48
2018-05-06T17:13:28.891Z,100823.23
2018-05-06T17:15:57.224Z,100827.28
2018-05-06T17:18:25.625Z,100820.33
2018-05-06T17:20:53.945Z,100824.02
2018-05-06T17:23:22.275Z,100831.19
2018-05-06T17:25:50.671Z,100835.80
2018-05-06T17:28:18.992Z,100833.14
2018-05-06T17:30:47.314Z,100827.75
2018-05-06T17:33:15.653Z,100829.31
2018-05-06T17:35:44.054Z,100833.84
2018-05-06T17:38:12.392Z,100831.80
2018-05-06T17:40:40.711Z,100837.03
2018-05-06T17:43:09.024Z,100837.27
2018-05-06T17:45:37.365Z,100844.44
2018-05-06T17:48:05.723Z,100832.88
2018-05-06T17:50:34.033Z,100840.10
2018-05-06T17:53:02.354Z,100839.55
2018-05-06T17:55:30.664Z,100842.02
2018-05-06T17:57:59.021Z,100837.73
2018-05-06T18:00:27.367Z,100842.00
2018-05-06T18:02:55.769Z,100844.95
2018-05-06T18:05:24.139Z,100843.84
2018-05-06T18:07:52.490Z,100846.73
2018-05-06T18:10:21.362Z,100841.05
2018-05-06T18:12:49.776Z,100839.12
2018-05-06T18:15:18.090Z,100835.70
2018-05-06T18:17:46.510Z,100832.79
2018-05-06T18:20:15.871Z,100838.88
2018-05-06T18:22:44.271Z,100839.06
2018-05-06T18:25:12.522Z,100837.40
2018-05-06T18:27:40.856Z,100839.75
2018-05-06T18:30:09.162Z,100848.91
2018-05-06T18:32:37.490Z,100843.61
2018-05-06T18:35:05.872Z,100850.05
2018-05-06T18:37:34.241Z,100850.84
2018-05-06T18:40:02.554Z,100853.22
2018-05-06T18:42:30.953Z,100852.81
2018-05-06T18:44:59.304Z,100857.23
2018-05-06T18:47:27.641Z,100862.20
2018-05-06T18:49:56.049Z,100864.39
2018-05-06T18:52:24.380Z,100866.22
2018-05-06T18:54:52.725Z,100868.16
2018-05-06T18:57:21.093Z,100867.84
2018-05-06T18:59:49.389Z,100873.66
2018-05-06T19:02:17.750Z,100868.41
2018-05-06T19:04:46.157Z,100872.62
2018-05-06T19:07:14.453Z,100880.17
2018-05-06T19:09:42.771Z,100882.85
2018-05-06T19:12:11.603Z,100876.44
2018-05-06T19:14:39.899Z,100874.80
2018-05-06T19:17:08.359Z,100876.95
2018-05-06T19:19:36.640Z,100875.58
2018-05-06T19:22:04.970Z,100879.74
2018-05-06T19:24:33.285Z,100875.48
2018-05-06T19:27:01.718Z,100882.66
2018-05-06T19:29:30.106Z,100880.64
2018-05-06T19:31:59.068Z,100877.78
2018-05-06T19:34:27.705Z,100882.95
2018-05-06T19:36:56.131Z,100876.59
2018-05-06T19:39:24.423Z,100885.03
2018-05-06T19:41:52.874Z,100881.85
2018-05-06T19:44:21.281Z,100878.08
2018-05-06T19:46:49.599Z,100885.35
2018-05-06T19:49:17.929Z,100883.20
2018-05-06T19:51:46.316Z,100886.86
2018-05-06T19:54:14.656Z,100889.69
2018-05-06T19:56:43.057Z,100883.64
2018-05-06T19:59:11.378Z,100885.07
2018-05-06T20:01:39.706Z,100882.30
2018-05-06T20:04:08.048Z,100878.20
2018-05-06T20:06:36.980Z,100880.14
2018-05-06T20:09:06.121Z,100882.17
2018-05-06T20:11:34.514Z,100880.17
2018-05-06T20:14:02.844Z,100875.73
2018-05-06T20:16:31.333Z,100880.81
2018-05-06T20:18:59.696Z,100877.82
2018-05-06T20:21:28.115Z,100885.68
2018-05-06T20:23:56.497Z,100887.09
2018-05-06T20:26:24.848Z,100885.81
2018-05-06T20:28:53.227Z,100885.92
2018-05-06T20:31:21.901Z,100889.48
2018-05-06T20:33:50.179Z,100889.70
2018-05-06T20:36:18.500Z,100893.50
2018-05-06T20:38:48.236Z,100896.13
2018-05-06T20:41:16.838Z,100892.52
2018-05-06T20:43:45.143Z,100899.11
2018-05-06T20:46:13.475Z,100895.24
2018-05-06T20:48:41.803Z,100893.47
2018-05-06T20:51:10.127Z,100892.95
2018-05-06T20:53:38.505Z,100899.97
2018-05-06T20:56:06.857Z,100898.37
2018-05-06T20:58:35.183Z,100899.31
2018-05-06T21:01:03.537Z,100898.83
2018-05-06T21:03:31.860Z,100897.23
2018-05-06T21:06:00.271Z,100896.70
2018-05-06T21:08:28.858Z,100898.61
2018-05-06T21:10:57.295Z,100901.05
2018-05-06T21:13:25.659Z,100896.09
2018-05-06T21:15:54.697Z,100899.64
2018-05-06T21:18:23.020Z,100901.86
2018-05-06T21:20:51.337Z,100901.19
2018-05-06T21:23:19.662Z,100891.92
2018-05-06T21:25:47.971Z,100891.97
2018-05-06T21:28:16.301Z,100893.08
2018-05-06T21:30:44.629Z,100890.25
2018-05-06T21:33:13.276Z,100900.78
2018-05-06T21:35:42.164Z,100897.56
2018-05-06T21:38:10.516Z,100893.14
2018-05-06T21:40:38.826Z,100895.61
2018-05-06T21:43:07.182Z,100891.27
2018-05-06T21:45:35.576Z,100894.10
2018-05-06T21:48:04.067Z,100887.28
2018-05-06T21:50:32.405Z,100891.52
2018-05-06T21:53:00.764Z,100893.74
2018-05-06T21:55:29.137Z,100886.66
2018-05-06T21:57:57.446Z,100888.88
2018-05-06T22:00:25.881Z,100888.90
2018-05-06T22:02:54.234Z,100888.78
2018-05-06T22:05:22.566Z,100893.27
2018-05-06T22:07:51.000Z,100892.62
2018-05-06T22:10:19.366Z,100892.47
2018-05-06T22:12:47.701Z,100894.36
2018-05-06T22:15:16.044Z,100897.50
2018-05-06T22:17:44.487Z,100896.06
2018-05-06T22:20:12.846Z,100890.98
2018-05-06T22:22:41.162Z,100899.34
2018-05-06T22:25:09.497Z,100896.12
2018-05-06T22:27:37.843Z,100897.09
2018-05-06T22:30:07.743Z,100892.39
2018-05-06T22:32:36.046Z,100900.20
2018-05-06T22:35:04.515Z,100901.39
2018-05-06T22:37:32.813Z,100897.25
2018-05-06T22:40:01.238Z,100898.33
2018-05-06T22:42:29.625Z,100899.01
2018-05-06T22:44:57.950Z,100895.00
2018-05-06T22:47:26.304Z,100897.03
2018-05-06T22:49:54.651Z,100890.48
2018-05-06T22:52:22.982Z,100896.13
2018-05-06T22:54:51.406Z,100897.20
2018-05-06T22:57:19.752Z,100900.55
2018-05-06T22:59:48.099Z,100900.56
2018-05-06T23:02:16.480Z,100894.22
2018-05-06T23:04:44.800Z,100898.39
2018-05-06T23:07:13.164Z,100895.02
2018-05-06T23:09:41.482Z,100893.39
2018-05-06T23:12:09.830Z,100887.63
2018-05-06T23:14:38.238Z,100881.17
2018-05-06T23:17:06.565Z,100888.67
2018-05-06T23:19:34.930Z,100889.22
2018-05-06T23:22:03.358Z,100886.64
2018-05-06T23:24:31.661Z,100894.70
2018-05-06T23:26:59.991Z,100889.22
2018-05-06T23:29:28.380Z,100894.44
2018-05-06T23:31:56.782Z,100893.78
2018-05-06T23:34:25.169Z,100897.81
2018-05-06T23:36:53.481Z,100895.24
2018-05-06T23:39:21.800Z,100901.69
2018-05-06T23:41:50.115Z,100904.48
2018-05-06T23:44:18.435Z,100905.56
2018-05-06T23:46:46.776Z,100905.70
2018-05-06T23:49:15.196Z,100904.62
2018-05-06T23:51:43.519Z,100900.70
2018-05-06T23:54:11.841Z,100901.13
2018-05-06T23:56:40.189Z,100898.54
2018-05-06T23:59:08.585Z,100908.03
